Hlavní strana
METAR-TAF:

METAR-TAF

Letiště :

Damašek, Sýrie

zeměpisná šířka: 33-25N, zeměpisná délka: 036-31E, výška: 608 m

Aktuální stav počasí

Zpráva byla vytvořena před 49 minutami, v 17:00 UTC
Východoseverovýchodní vítr 11 kt
Teplota 25°C
Vlhkost vzduchu 11%
Tlak 1012 hPa
Viditelnost 10 km a více
Žádná oblačnost pod 1500 m, nevyskytují se cumulonimby.

METAR: OSDI 241700Z 06011KT CAVOK 25/M07 Q1012

Čas: 20:49 (17:49 UTC)

Předpověď počasí

Zpráva byla vytvořena před 1 hodinou a 49 minutami, v 16:00 UTC
Předpověď platná od 24 v 18 UTC do 25 v 24 UTC
Jihozápadní vítr 10 kt
Viditelnost 10 km a více
Skoro jasno ve výšce 3000 ft
Dočasný
od 25 v 12 UTC do 25 v 24 UTC
Západní vítr 15 kt
Viditelnost: 6000 m
Skoro jasno ve výšce 2500 ft, Cumulonimbus.
Oblačno až skoro zataženo ve výšce 3000 ft
Zataženo ve výšce 10000 ft
dešťové přeháňky

TAF: OSDI 241600Z 2418/2524 22010KT 9999 FEW030 TEMPO 2512/2524 28015KT 6000 SHRA FEW025CB BKN030 OVC100

Stav a předpovědi počasí z více než 4 000 letišť (zprávy METAR a TAF).

Červené a žluté tečky na mapě představují dostupné meteorologické stanice.

Když kurzor umístíte na tečku, zobrazí se název stanice.

Pak kliknutím zobrazíte stav a předpověď počasí.

Chcete-li změnit mapu, kliknutím na zelené tlačítko se znaménkem +mapu přiblížíte, kliknutím na zelené tlačítko se znaménkem – mapu oddálíte a kliknutím na zelené šipky přejdete na sousední mapy.


METAR-TAF: